createdAt,value
2022-10-19T00:01:28.637Z,102124.88
2022-10-19T00:03:56.054Z,102165.00
2022-10-19T00:06:26.198Z,102158.94
2022-10-19T00:08:54.375Z,102164.19
2022-10-19T00:11:21.334Z,102102.19
2022-10-19T00:13:47.804Z,102136.22
2022-10-19T00:16:16.215Z,102138.00
2022-10-19T00:18:43.663Z,102151.97
2022-10-19T00:21:11.983Z,102107.47
2022-10-19T00:23:38.521Z,102021.06
2022-10-19T00:26:05.039Z,102107.50
2022-10-19T00:28:31.494Z,102137.19
2022-10-19T00:31:03.037Z,102122.34
2022-10-19T00:33:29.412Z,102131.09
2022-10-19T00:35:55.832Z,102113.66
2022-10-19T00:38:22.287Z,102097.88
2022-10-19T00:40:49.312Z,102096.16
2022-10-19T00:43:16.874Z,102159.91
2022-10-19T00:45:43.270Z,102159.91
2022-10-19T00:48:13.191Z,102166.03
2022-10-19T00:50:40.776Z,102123.25
2022-10-19T00:53:07.198Z,102022.84
2022-10-19T00:55:34.552Z,102157.28
2022-10-19T00:58:03.285Z,102150.28
2022-10-19T01:00:29.848Z,102142.41
2022-10-19T01:02:58.763Z,102138.06
2022-10-19T01:05:26.382Z,102157.28
2022-10-19T01:07:53.842Z,102125.84
2022-10-19T01:10:30.291Z,102007.13
2022-10-19T01:13:21.305Z,102078.72
2022-10-19T01:15:59.520Z,102143.34
2022-10-19T01:18:48.121Z,102142.44
2022-10-19T01:21:21.622Z,102143.31
2022-10-19T01:24:01.722Z,102081.31
2022-10-19T01:26:47.529Z,102139.81
2022-10-19T01:29:44.920Z,102134.56
2022-10-19T01:32:28.983Z,102095.28
2022-10-19T01:35:06.668Z,102085.66
2022-10-19T01:37:51.860Z,102132.88
2022-10-19T01:40:30.580Z,102124.13
2022-10-19T01:43:37.747Z,102122.38
2022-10-19T01:46:31.559Z,102084.81
2022-10-19T01:49:09.260Z,102076.94
2022-10-19T01:51:42.336Z,102085.69
2022-10-19T01:54:12.733Z,102042.03
2022-10-19T01:56:42.577Z,102077.84
2022-10-19T01:59:11.836Z,102051.63
2022-10-19T02:01:43.833Z,102118.88
2022-10-19T02:04:12.980Z,102110.13
2022-10-19T02:06:40.851Z,102106.66
2022-10-19T02:09:07.409Z,102090.03
2022-10-19T02:11:35.491Z,102100.50
2022-10-19T02:14:09.518Z,102083.94
2022-10-19T02:16:45.797Z,102073.47
2022-10-19T02:19:15.494Z,102059.47
2022-10-19T02:21:42.007Z,102076.94
2022-10-19T02:24:08.470Z,101981.78
2022-10-19T02:26:35.023Z,102089.16
2022-10-19T02:29:01.580Z,101994.00
2022-10-19T02:31:27.958Z,102040.22
2022-10-19T02:33:54.707Z,102069.94
2022-10-19T02:36:21.479Z,102068.16
2022-10-19T02:38:48.024Z,102076.91
2022-10-19T02:41:24.383Z,101973.06
2022-10-19T02:43:58.900Z,102048.13
2022-10-19T02:46:35.295Z,102061.19
2022-10-19T02:49:04.440Z,102050.75
2022-10-19T02:51:33.749Z,102056.00
2022-10-19T02:54:02.712Z,101965.22
2022-10-19T02:56:32.243Z,102062.09
2022-10-19T02:58:58.595Z,101965.22
2022-10-19T03:01:25.099Z,102034.13
2022-10-19T03:03:51.433Z,101939.91
2022-10-19T03:06:17.750Z,102026.28
2022-10-19T03:08:44.382Z,102030.63
2022-10-19T03:11:10.727Z,102047.16
2022-10-19T03:13:37.149Z,102059.34
2022-10-19T03:16:12.224Z,102050.63
2022-10-19T03:18:38.687Z,102069.75
2022-10-19T03:21:08.460Z,102063.75
2022-10-19T03:23:35.502Z,102073.34
2022-10-19T03:26:02.377Z,102069.91
2022-10-19T03:28:28.962Z,102040.22
2022-10-19T03:30:55.807Z,102035.03
2022-10-19T03:33:22.697Z,101963.47
2022-10-19T03:35:49.201Z,102048.97
2022-10-19T03:38:15.878Z,102027.16
2022-10-19T03:40:42.492Z,102045.50
2022-10-19T03:43:08.836Z,101929.38
2022-10-19T03:45:35.198Z,101998.31
2022-10-19T03:48:01.587Z,102011.38
2022-10-19T03:50:27.946Z,102013.09
2022-10-19T03:52:55.437Z,101844.63
2022-10-19T03:55:21.790Z,101936.22
2022-10-19T03:57:48.118Z,102027.84
2022-10-19T04:00:14.841Z,101994.69
2022-10-19T04:02:41.153Z,102013.16
2022-10-19T04:05:07.886Z,101984.38
2022-10-19T04:07:34.491Z,101925.09
2022-10-19T04:10:01.043Z,102028.06
2022-10-19T04:12:27.356Z,102043.78
2022-10-19T04:14:57.407Z,102000.16
2022-10-19T04:17:24.849Z,102035.06
2022-10-19T04:19:51.184Z,102026.34
2022-10-19T04:22:17.544Z,101930.34
2022-10-19T04:24:43.886Z,102015.84
2022-10-19T04:27:10.196Z,102042.91
2022-10-19T04:29:36.599Z,102016.72
2022-10-19T04:32:02.939Z,102035.91
2022-10-19T04:34:29.264Z,102017.59
2022-10-19T04:36:59.121Z,102041.13
2022-10-19T04:39:25.433Z,101970.47
2022-10-19T04:41:51.735Z,102025.44
2022-10-19T04:44:18.099Z,102010.56
2022-10-19T04:46:44.452Z,102054.25
2022-10-19T04:49:10.776Z,101893.72
2022-10-19T04:51:37.111Z,101920.78
2022-10-19T04:54:03.834Z,102035.03
2022-10-19T04:56:32.141Z,102013.22
2022-10-19T04:59:00.079Z,101939.06
2022-10-19T05:01:28.525Z,102069.94
2022-10-19T05:04:00.769Z,102033.28
2022-10-19T05:06:27.516Z,102040.28
2022-10-19T05:08:53.859Z,101953.91
2022-10-19T05:11:20.862Z,102066.44
2022-10-19T05:13:47.619Z,102052.50
2022-10-19T05:16:17.720Z,102055.09
2022-10-19T05:18:50.883Z,102038.53
2022-10-19T05:21:18.168Z,102033.28
2022-10-19T05:23:44.865Z,101993.13
2022-10-19T05:26:14.466Z,102026.31
2022-10-19T05:28:41.182Z,101980.03
2022-10-19T05:31:12.864Z,102036.72
2022-10-19T05:33:40.152Z,102029.75
2022-10-19T05:36:29.489Z,102036.69
2022-10-19T05:38:57.731Z,102034.97
2022-10-19T05:41:26.230Z,102029.78
2022-10-19T05:43:57.677Z,102031.53
2022-10-19T05:46:24.970Z,101996.63
2022-10-19T05:48:51.556Z,101993.16
2022-10-19T05:51:20.555Z,102018.44
2022-10-19T05:53:47.156Z,102008.88
2022-10-19T05:56:17.862Z,102000.16
2022-10-19T05:58:44.566Z,101991.41
2022-10-19T06:01:11.055Z,102014.09
2022-10-19T06:03:37.381Z,101956.53
2022-10-19T06:06:06.214Z,102023.72
2022-10-19T06:08:33.672Z,102028.94
2022-10-19T06:11:09.932Z,102028.06
2022-10-19T06:13:37.191Z,101918.19
2022-10-19T06:16:04.537Z,101962.63
2022-10-19T06:18:31.005Z,102007.13
2022-10-19T06:21:02.371Z,101981.84
2022-10-19T06:23:28.714Z,101999.28
2022-10-19T06:25:55.256Z,102000.16
2022-10-19T06:28:21.558Z,101987.06
2022-10-19T06:30:47.906Z,101999.25
2022-10-19T06:33:14.442Z,101991.41
2022-10-19T06:35:42.897Z,102004.50
2022-10-19T06:38:09.717Z,101865.88
2022-10-19T06:40:36.226Z,102006.22
2022-10-19T06:43:02.584Z,101995.75
2022-10-19T06:45:32.270Z,101955.63
2022-10-19T06:48:05.020Z,101954.75
2022-10-19T06:50:34.217Z,101987.03
2022-10-19T06:53:00.599Z,101973.03
2022-10-19T06:55:27.016Z,102014.06
2022-10-19T06:57:53.384Z,101993.97
2022-10-19T07:00:19.735Z,101942.53
2022-10-19T07:02:46.082Z,102012.28
2022-10-19T07:05:12.399Z,101891.94
2022-10-19T07:07:38.860Z,101989.63
2022-10-19T07:10:05.722Z,102002.66
2022-10-19T07:12:32.144Z,101979.97
2022-10-19T07:14:58.455Z,102002.66
2022-10-19T07:17:24.921Z,101992.13
2022-10-19T07:19:51.259Z,101972.94
2022-10-19T07:22:22.174Z,102008.72
2022-10-19T07:24:52.218Z,101935.44
2022-10-19T07:27:18.653Z,102013.03
2022-10-19T07:29:45.132Z,102006.94
2022-10-19T07:32:11.444Z,101916.25
2022-10-19T07:34:37.771Z,101974.66
2022-10-19T07:37:04.131Z,102022.56
2022-10-19T07:39:30.623Z,102014.75
2022-10-19T07:41:56.981Z,101999.06
2022-10-19T07:44:23.453Z,101984.22
2022-10-19T07:46:50.289Z,101991.09
2022-10-19T07:49:18.898Z,102032.03
2022-10-19T07:51:46.732Z,101916.97
2022-10-19T07:54:13.638Z,102036.34
2022-10-19T07:56:40.125Z,101921.28
2022-10-19T07:59:06.579Z,101963.09
2022-10-19T08:01:37.903Z,102028.41
2022-10-19T08:06:50.640Z,102011.00
2022-10-19T08:09:40.043Z,101892.53
2022-10-19T08:12:04.295Z,101915.91
2022-10-19T08:14:30.758Z,101949.91
2022-10-19T08:16:57.416Z,101978.63
2022-10-19T08:19:24.208Z,101982.13
2022-10-19T08:21:50.888Z,101983.84
2022-10-19T08:24:19.751Z,101842.69
2022-10-19T08:26:46.783Z,101981.19
2022-10-19T08:29:16.265Z,101972.41
2022-10-19T08:31:44.061Z,101984.63
2022-10-19T08:34:11.327Z,102016.00
2022-10-19T08:36:37.716Z,101995.88
2022-10-19T08:39:06.096Z,101974.00
2022-10-19T08:41:44.920Z,101999.16
2022-10-19T08:44:33.059Z,102013.13
2022-10-19T08:47:12.512Z,101999.03
2022-10-19T08:49:41.574Z,101993.78
2022-10-19T08:52:16.245Z,101997.19
2022-10-19T08:54:56.447Z,101995.38
2022-10-19T08:57:41.271Z,101972.63
2022-10-19T09:00:28.425Z,101931.53
2022-10-19T09:03:13.573Z,101965.34
2022-10-19T09:05:44.847Z,101980.88
2022-10-19T09:08:17.448Z,101928.53
2022-10-19T09:10:48.753Z,101972.84
2022-10-19T09:13:21.101Z,101972.69
2022-10-19T09:15:50.409Z,101942.19
2022-10-19T09:18:21.421Z,101965.47
2022-10-19T09:20:53.875Z,101971.53
2022-10-19T09:23:27.409Z,101949.72
2022-10-19T09:25:55.583Z,101934.69
2022-10-19T09:28:44.792Z,101897.13
2022-10-19T09:31:18.046Z,101954.38
2022-10-19T09:33:50.049Z,101914.94
2022-10-19T09:36:22.916Z,101942.84
2022-10-19T09:38:54.190Z,101946.03
2022-10-19T09:41:22.479Z,101976.47
2022-10-19T09:43:54.406Z,101978.91
2022-10-19T09:46:52.044Z,101901.41
2022-10-19T09:49:20.198Z,101926.44
2022-10-19T09:51:53.059Z,101936.78
2022-10-19T09:54:26.039Z,101931.28
2022-10-19T09:56:54.786Z,101917.44
2022-10-19T09:59:24.208Z,101915.31
2022-10-19T10:02:06.131Z,101912.34
2022-10-19T10:04:36.273Z,101897.34
2022-10-19T10:07:03.951Z,101941.34
2022-10-19T10:09:30.472Z,101930.66
2022-10-19T10:11:59.920Z,101887.34
2022-10-19T10:14:33.409Z,101897.28
2022-10-19T10:17:06.601Z,101867.66
2022-10-19T10:19:35.973Z,101919.94
2022-10-19T10:22:03.851Z,101922.63
2022-10-19T10:24:32.799Z,101922.91
2022-10-19T10:27:06.371Z,101914.50
2022-10-19T10:29:35.794Z,101912.84
2022-10-19T10:32:07.968Z,101921.34
2022-10-19T10:34:50.593Z,101916.44
2022-10-19T10:37:22.897Z,101917.75
2022-10-19T10:39:55.143Z,101902.59
2022-10-19T10:42:30.051Z,101869.78
2022-10-19T10:44:57.472Z,101883.59
2022-10-19T10:47:27.007Z,101851.03
2022-10-19T10:50:06.383Z,101878.59
2022-10-19T10:52:34.548Z,101857.16
2022-10-19T10:55:21.341Z,101886.28
2022-10-19T10:57:51.755Z,101850.53
2022-10-19T11:00:23.976Z,101849.44
2022-10-19T11:03:09.162Z,101881.84
2022-10-19T11:05:46.135Z,101842.97
2022-10-19T11:08:12.421Z,101877.59
2022-10-19T11:11:04.556Z,101867.19
2022-10-19T11:13:39.467Z,101880.34
2022-10-19T11:16:33.594Z,101871.03
2022-10-19T11:19:10.831Z,101853.69
2022-10-19T11:21:50.146Z,101871.38
2022-10-19T11:24:21.242Z,101829.38
2022-10-19T11:27:17.818Z,101842.50
2022-10-19T11:30:16.434Z,101844.75
2022-10-19T11:33:00.145Z,101826.47
2022-10-19T11:35:42.027Z,101853.00
2022-10-19T11:38:33.289Z,101809.78
2022-10-19T11:41:18.928Z,101839.94
2022-10-19T11:44:07.352Z,101833.03
2022-10-19T11:46:51.782Z,101788.75
2022-10-19T11:49:39.898Z,101828.03
2022-10-19T11:52:55.370Z,101833.84
2022-10-19T11:55:45.866Z,101790.75
2022-10-19T11:58:34.597Z,101810.41
2022-10-19T12:01:21.978Z,101784.19
2022-10-19T12:04:02.858Z,101738.41
2022-10-19T12:06:47.970Z,101785.41
2022-10-19T12:09:32.584Z,101780.34
2022-10-19T12:12:25.832Z,101736.41
2022-10-19T12:15:00.924Z,101724.47
2022-10-19T12:17:31.379Z,101769.78
2022-10-19T12:20:06.417Z,101753.28
2022-10-19T12:22:37.302Z,101752.97
2022-10-19T12:25:04.247Z,101751.56
2022-10-19T12:27:36.214Z,101754.03
2022-10-19T12:30:23.678Z,101752.84
2022-10-19T12:33:05.983Z,101747.84
2022-10-19T12:35:45.953Z,101735.38
2022-10-19T12:38:33.446Z,101744.63
2022-10-19T12:41:07.177Z,101702.13
2022-10-19T12:43:43.562Z,101731.78
2022-10-19T12:46:37.162Z,101723.81
2022-10-19T12:49:31.206Z,101728.78
2022-10-19T12:52:01.619Z,101695.91
2022-10-19T12:54:40.747Z,101672.47
2022-10-19T12:57:27.093Z,101681.19
2022-10-19T13:00:00.463Z,101686.44
2022-10-19T13:05:04.609Z,101678.66
2022-10-19T13:07:35.490Z,101661.00
2022-10-19T13:10:07.045Z,101637.44
2022-10-19T13:12:44.219Z,101611.91
2022-10-19T13:15:35.678Z,101675.16
2022-10-19T13:18:03.912Z,101668.34
2022-10-19T13:20:30.206Z,101676.09
2022-10-19T13:22:59.665Z,101677.31
2022-10-19T13:25:32.686Z,101649.19
2022-10-19T13:28:12.586Z,101670.34
2022-10-19T13:30:38.962Z,101671.28
2022-10-19T13:33:30.136Z,101667.28
2022-10-19T13:35:59.423Z,101659.22
2022-10-19T13:38:26.325Z,101662.94
2022-10-19T13:40:52.725Z,101648.97
2022-10-19T13:43:28.492Z,101591.97
2022-10-19T13:46:07.909Z,101641.81
2022-10-19T13:49:11.058Z,101612.28
2022-10-19T13:52:04.949Z,101629.84
2022-10-19T13:54:51.534Z,101592.09
2022-10-19T13:57:20.895Z,101631.56
2022-10-19T14:00:19.936Z,101630.72
2022-10-19T14:03:10.818Z,101616.13
2022-10-19T14:05:53.603Z,101615.50
2022-10-19T14:08:43.230Z,101617.22
2022-10-19T14:11:17.158Z,101610.56
2022-10-19T14:13:43.804Z,101584.41
2022-10-19T14:16:21.888Z,101617.84
2022-10-19T14:18:55.912Z,101605.78
2022-10-19T14:21:36.870Z,101584.66
2022-10-19T14:24:19.365Z,101585.34
2022-10-19T14:26:46.595Z,101587.34
2022-10-19T14:29:13.627Z,101609.19
2022-10-19T14:31:40.111Z,101588.91
2022-10-19T14:34:09.325Z,101584.41
2022-10-19T14:36:43.880Z,101581.47
2022-10-19T14:39:29.313Z,101594.66
2022-10-19T14:41:55.991Z,101538.06
2022-10-19T14:44:39.518Z,101553.31
2022-10-19T14:47:21.774Z,101576.34
2022-10-19T14:49:48.471Z,101523.56
2022-10-19T14:52:32.616Z,101558.34
2022-10-19T14:55:01.804Z,101565.66
2022-10-19T14:57:37.195Z,101570.44
2022-10-19T15:00:13.994Z,101521.84
2022-10-19T15:02:45.223Z,101570.84
2022-10-19T15:05:20.872Z,101503.38
2022-10-19T15:07:48.232Z,101525.97
2022-10-19T15:10:21.607Z,101560.34
2022-10-19T15:12:50.322Z,101527.53
2022-10-19T15:15:22.564Z,101505.13
2022-10-19T15:17:53.885Z,101506.84
2022-10-19T15:20:49.154Z,101526.38
2022-10-19T15:23:43.732Z,101484.94
2022-10-19T15:26:18.527Z,101511.22
2022-10-19T15:28:45.388Z,101531.06
2022-10-19T15:31:25.526Z,101488.53
2022-10-19T15:33:58.873Z,101517.88
2022-10-19T15:36:26.514Z,101509.38
2022-10-19T15:39:06.413Z,101518.69
2022-10-19T15:41:44.818Z,101471.84
2022-10-19T15:44:39.956Z,101523.34
2022-10-19T15:47:19.393Z,101509.06
2022-10-19T15:49:45.784Z,101519.47
2022-10-19T15:52:16.290Z,101497.84
2022-10-19T15:54:42.985Z,101496.28
2022-10-19T15:57:26.215Z,101511.75
2022-10-19T15:59:53.698Z,101453.31
2022-10-19T16:02:20.061Z,101442.41
2022-10-19T16:04:46.475Z,101500.53
2022-10-19T16:07:24.070Z,101502.53
2022-10-19T16:09:50.382Z,101465.81
2022-10-19T16:12:16.707Z,101450.88
2022-10-19T16:14:43.002Z,101459.22
2022-10-19T16:17:13.003Z,101463.16
2022-10-19T16:19:39.333Z,101454.88
2022-10-19T16:22:05.977Z,101444.78
2022-10-19T16:24:32.444Z,101463.31
2022-10-19T16:26:58.785Z,101475.53
2022-10-19T16:29:28.234Z,101419.72
2022-10-19T16:31:55.589Z,101419.94
2022-10-19T16:34:21.964Z,101397.41
2022-10-19T16:36:48.439Z,101419.53
2022-10-19T16:39:14.761Z,101446.28
2022-10-19T16:41:41.085Z,101430.41
2022-10-19T16:44:07.405Z,101441.13
2022-10-19T16:46:33.771Z,101440.09
2022-10-19T16:49:00.127Z,101408.34
2022-10-19T16:51:28.921Z,101446.19
2022-10-19T16:53:57.392Z,101452.41
2022-10-19T16:56:26.300Z,101425.81
2022-10-19T16:58:59.594Z,101410.06
2022-10-19T17:01:26.651Z,101411.94
2022-10-19T17:03:53.753Z,101427.44
2022-10-19T17:06:20.282Z,101420.94
2022-10-19T17:11:35.706Z,101449.03
2022-10-19T17:14:05.937Z,101441.09
2022-10-19T17:16:33.955Z,101433.22
2022-10-19T17:19:01.739Z,101380.88
2022-10-19T17:21:31.744Z,101366.34
2022-10-19T17:24:00.745Z,101425.44
2022-10-19T17:26:29.654Z,101421.59
2022-10-19T17:28:57.095Z,101354.25
2022-10-19T17:31:23.676Z,101418.63
2022-10-19T17:33:50.229Z,101423.09
2022-10-19T17:36:20.991Z,101419.00
2022-10-19T17:38:47.778Z,101374.06
2022-10-19T17:41:19.775Z,101427.25
2022-10-19T17:43:47.151Z,101387.78
2022-10-19T17:46:16.562Z,101432.97
2022-10-19T17:48:44.244Z,101427.66
2022-10-19T17:51:15.958Z,101414.88
2022-10-19T17:53:46.473Z,101416.97
2022-10-19T17:56:16.235Z,101356.03
2022-10-19T17:58:42.584Z,101391.16
2022-10-19T18:01:10.139Z,101392.16
2022-10-19T18:03:38.421Z,101378.78
2022-10-19T18:06:10.688Z,101424.03
2022-10-19T18:08:39.845Z,101419.72
2022-10-19T18:11:08.919Z,101396.34
2022-10-19T18:16:14.522Z,101396.31
2022-10-19T18:18:43.208Z,101421.50
2022-10-19T18:21:12.679Z,101416.28
2022-10-19T18:23:39.912Z,101303.44
2022-10-19T18:26:13.323Z,101414.94
2022-10-19T18:28:40.475Z,101317.56
2022-10-19T18:31:13.153Z,101436.03
2022-10-19T18:33:40.357Z,101380.94
2022-10-19T18:36:10.043Z,101398.31
2022-10-19T18:38:37.653Z,101354.09
2022-10-19T18:41:11.627Z,101402.94
2022-10-19T18:43:38.794Z,101335.63
2022-10-19T18:46:05.514Z,101397.75
2022-10-19T18:48:31.840Z,101352.16
2022-10-19T18:51:02.577Z,101339.28
2022-10-19T18:53:30.057Z,101366.09
2022-10-19T18:56:04.510Z,101336.03
2022-10-19T18:58:31.108Z,101370.56
2022-10-19T19:01:16.214Z,101374.63
2022-10-19T19:03:45.365Z,101375.66
2022-10-19T19:06:19.577Z,101321.34
2022-10-19T19:08:52.512Z,101362.81
2022-10-19T19:11:21.518Z,101351.38
2022-10-19T19:13:55.166Z,101354.94
2022-10-19T19:16:22.464Z,101348.94
2022-10-19T19:18:54.694Z,101357.03
2022-10-19T19:21:23.783Z,101351.69
2022-10-19T19:23:51.559Z,101354.53
2022-10-19T19:26:18.926Z,101347.81
2022-10-19T19:28:49.103Z,101362.56
2022-10-19T19:31:18.563Z,101324.25
2022-10-19T19:33:46.034Z,101308.91
2022-10-19T19:36:13.975Z,101267.50
2022-10-19T19:38:40.821Z,101316.59
2022-10-19T19:41:09.260Z,101332.22
2022-10-19T19:43:37.526Z,101335.63
2022-10-19T19:46:09.281Z,101303.97
2022-10-19T19:48:37.156Z,101298.78
2022-10-19T19:51:03.983Z,101322.72
2022-10-19T19:53:30.519Z,101305.16
2022-10-19T19:55:56.913Z,101277.84
2022-10-19T19:58:23.246Z,101284.69
2022-10-19T20:00:49.558Z,101267.59
2022-10-19T20:03:16.248Z,101226.03
2022-10-19T20:05:42.757Z,101287.41
2022-10-19T20:08:09.688Z,101302.22
2022-10-19T20:10:41.430Z,101282.94
2022-10-19T20:13:08.109Z,101263.59
2022-10-19T20:15:38.546Z,101291.88
2022-10-19T20:18:05.806Z,101251.97
2022-10-19T20:20:32.126Z,101242.56
2022-10-19T20:22:58.439Z,101278.97
2022-10-19T20:25:24.738Z,101255.84
2022-10-19T20:27:51.102Z,101250.44
2022-10-19T20:30:17.617Z,101259.25
2022-10-19T20:32:43.963Z,101235.03
2022-10-19T20:35:10.387Z,101278.31
2022-10-19T20:37:36.789Z,101249.75
2022-10-19T20:40:08.531Z,101253.44
2022-10-19T20:42:35.865Z,101243.13
2022-10-19T20:45:02.641Z,101242.06
2022-10-19T20:47:29.370Z,101133.41
2022-10-19T20:49:55.701Z,101231.81
2022-10-19T20:52:22.085Z,101195.63
2022-10-19T20:54:49.192Z,101241.66
2022-10-19T20:57:15.651Z,101256.47
2022-10-19T20:59:43.702Z,101213.25
2022-10-19T21:02:11.183Z,101235.56
2022-10-19T21:04:37.570Z,101204.53
2022-10-19T21:07:04.909Z,101232.28
2022-10-19T21:09:31.641Z,101209.69
2022-10-19T21:11:58.212Z,101220.06
2022-10-19T21:14:28.603Z,101204.44
2022-10-19T21:16:57.082Z,101201.06
2022-10-19T21:19:26.844Z,101184.47
2022-10-19T21:21:55.996Z,101237.25
2022-10-19T21:24:25.306Z,101240.56
2022-10-19T21:29:23.426Z,101197.34
2022-10-19T21:31:52.122Z,101226.44
2022-10-19T21:34:21.948Z,101223.88
2022-10-19T21:36:48.691Z,101235.47
2022-10-19T21:39:15.659Z,101202.59
2022-10-19T21:41:42.247Z,101199.00
2022-10-19T21:44:09.629Z,101184.44
2022-10-19T21:46:36.034Z,101178.25
2022-10-19T21:49:02.499Z,101172.50
2022-10-19T21:51:34.570Z,101220.75
2022-10-19T21:54:01.504Z,101199.34
2022-10-19T21:56:28.677Z,101202.97
2022-10-19T21:58:55.883Z,101211.09
2022-10-19T22:01:25.790Z,101197.63
2022-10-19T22:04:00.095Z,101205.84
2022-10-19T22:06:29.157Z,101195.50
2022-10-19T22:08:56.348Z,101187.88
2022-10-19T22:11:23.090Z,101147.19
2022-10-19T22:13:52.805Z,101196.44
2022-10-19T22:16:20.586Z,101157.25
2022-10-19T22:18:47.674Z,101175.91
2022-10-19T22:21:18.349Z,101177.72
2022-10-19T22:23:45.129Z,101130.06
2022-10-19T22:26:23.645Z,101146.63
2022-10-19T22:28:50.374Z,101163.03
2022-10-19T22:31:16.957Z,101137.59
2022-10-19T22:33:43.317Z,101111.34
2022-10-19T22:36:11.759Z,101144.06
2022-10-19T22:38:38.226Z,101125.19
2022-10-19T22:41:04.574Z,101118.72
2022-10-19T22:43:31.027Z,101104.81
2022-10-19T22:45:57.358Z,101003.19
2022-10-19T22:48:23.823Z,101086.72
2022-10-19T22:50:52.975Z,101123.97
2022-10-19T22:53:19.464Z,101123.00
2022-10-19T22:55:45.829Z,101090.06
2022-10-19T23:00:43.606Z,101110.88
2022-10-19T23:03:09.967Z,101062.34
2022-10-19T23:05:36.366Z,101078.88
2022-10-19T23:08:02.828Z,101051.19
2022-10-19T23:10:29.193Z,101031.22
2022-10-19T23:12:55.559Z,101031.19
2022-10-19T23:15:22.063Z,101085.44
2022-10-19T23:17:48.413Z,101032.66
2022-10-19T23:20:15.005Z,101071.34
2022-10-19T23:22:41.446Z,101024.03
2022-10-19T23:25:08.632Z,101060.28
2022-10-19T23:27:35.308Z,101052.75
2022-10-19T23:30:02.653Z,101075.91
2022-10-19T23:32:28.999Z,101059.81
2022-10-19T23:34:55.335Z,101049.66
2022-10-19T23:37:21.714Z,101028.56
2022-10-19T23:39:48.018Z,101056.06
2022-10-19T23:42:14.413Z,101040.75
2022-10-19T23:44:40.723Z,101038.91
2022-10-19T23:47:07.025Z,101033.75
2022-10-19T23:49:33.337Z,101053.56
2022-10-19T23:51:59.954Z,100931.38
2022-10-19T23:54:26.397Z,101033.53
2022-10-19T23:56:52.697Z,101028.56
2022-10-19T23:59:18.991Z,101036.22
